Terminal Aerodrome Forecast
Issued by NWS

Home | Current Version | Previous Version | Text Only | Print | Product List | Glossary On
Versions: 1 2 3 4 5 6 7 8 9 10 11 12 13 14 15 16 17
122
FTUS44 KMAF 231124 AAA
TAFINK
TAF AMD
KINK 231124Z 2311/2412 14016G26KT P6SM SCT250
      TEMPO 2313/2317 OVC010
     FM231900 19025G35KT 6SM BLDU SCT070 SCT250
     FM240100 27014G24KT P6SM SCT200
      AMD NOT SKED=

USA.gov is the U.S. government's official web portal to all federal, state and local government web resources and services.